createdAt,value
2018-09-17T00:00:13.658Z,0.00
2018-09-17T00:01:13.645Z,0.00
2018-09-17T00:02:13.648Z,0.00
2018-09-17T00:03:13.655Z,0.00
2018-09-17T00:04:13.634Z,0.00
2018-09-17T00:05:13.601Z,0.00
2018-09-17T00:06:13.593Z,0.00
2018-09-17T00:07:13.596Z,0.00
2018-09-17T00:08:13.569Z,0.00
2018-09-17T00:09:13.559Z,0.00
2018-09-17T00:10:13.567Z,0.00
2018-09-17T00:11:13.594Z,0.00
2018-09-17T00:12:13.555Z,0.00
2018-09-17T00:13:13.546Z,0.00
2018-09-17T00:14:13.505Z,0.00
2018-09-17T00:15:13.494Z,0.00
2018-09-17T00:16:13.485Z,0.00
2018-09-17T00:17:13.487Z,0.00
2018-09-17T00:18:13.462Z,0.00
2018-09-17T00:19:13.480Z,0.00
2018-09-17T00:20:13.441Z,0.00
2018-09-17T00:21:13.428Z,0.00
2018-09-17T00:22:13.442Z,0.00
2018-09-17T00:23:13.407Z,0.00
2018-09-17T00:24:13.399Z,0.00
2018-09-17T00:25:13.405Z,0.00
2018-09-17T00:26:13.405Z,0.00
2018-09-17T00:27:13.364Z,0.00
2018-09-17T00:28:13.374Z,0.00
2018-09-17T00:29:13.343Z,0.00
2018-09-17T00:30:13.330Z,0.00
2018-09-17T00:31:13.321Z,0.00
2018-09-17T00:32:13.337Z,0.00
2018-09-17T00:33:13.337Z,0.00
2018-09-17T00:34:13.287Z,0.00
2018-09-17T00:35:13.276Z,0.00
2018-09-17T00:36:13.266Z,0.00
2018-09-17T00:37:13.254Z,0.00
2018-09-17T00:38:13.259Z,0.00
2018-09-17T00:39:13.256Z,0.00
2018-09-17T00:40:13.232Z,0.00
2018-09-17T00:41:13.210Z,0.00
2018-09-17T00:42:13.200Z,0.00
2018-09-17T00:43:13.206Z,0.00
2018-09-17T00:44:13.184Z,0.00
2018-09-17T00:45:13.168Z,0.00
2018-09-17T00:46:13.179Z,0.00
2018-09-17T00:47:13.145Z,0.00
2018-09-17T00:48:13.152Z,0.00
2018-09-17T00:49:13.124Z,0.00
2018-09-17T00:50:13.156Z,0.00
2018-09-17T00:51:13.100Z,0.00
2018-09-17T00:52:13.113Z,0.00
2018-09-17T00:53:13.101Z,0.00
2018-09-17T00:54:13.069Z,0.00
2018-09-17T00:55:13.057Z,0.00
2018-09-17T00:56:13.046Z,0.00
2018-09-17T00:57:13.073Z,0.00
2018-09-17T00:58:13.080Z,0.00
2018-09-17T00:59:13.014Z,0.00
2018-09-17T01:00:13.004Z,0.00
2018-09-17T01:01:12.991Z,0.00
2018-09-17T01:02:12.982Z,0.00
2018-09-17T01:03:13.001Z,0.00
2018-09-17T01:04:13.034Z,0.00
2018-09-17T01:05:12.954Z,0.00
2018-09-17T01:06:13.018Z,0.00
2018-09-17T01:07:12.956Z,0.00
2018-09-17T01:08:12.919Z,0.00
2018-09-17T01:09:12.952Z,0.00
2018-09-17T01:10:12.894Z,0.00
2018-09-17T01:11:12.883Z,0.00
2018-09-17T01:12:12.898Z,0.00
2018-09-17T01:13:12.895Z,0.00
2018-09-17T01:14:12.862Z,0.00
2018-09-17T01:15:12.837Z,0.00
2018-09-17T01:16:12.826Z,0.00
2018-09-17T01:17:12.822Z,0.00
2018-09-17T01:18:12.836Z,0.00
2018-09-17T01:19:12.809Z,0.00
2018-09-17T01:20:12.785Z,0.00
2018-09-17T01:21:12.771Z,0.00
2018-09-17T01:22:12.765Z,0.00
2018-09-17T01:23:12.750Z,0.00
2018-09-17T01:24:12.784Z,0.00
2018-09-17T01:25:12.728Z,0.00
2018-09-17T01:26:12.719Z,0.00
2018-09-17T01:27:12.706Z,0.00
2018-09-17T01:28:12.695Z,0.00
2018-09-17T01:29:12.699Z,0.00
2018-09-17T01:30:12.695Z,0.00
2018-09-17T01:31:12.661Z,0.00
2018-09-17T01:32:12.664Z,0.00
2018-09-17T01:33:12.640Z,0.00
2018-09-17T01:34:12.641Z,0.00
2018-09-17T01:35:12.619Z,0.00
2018-09-17T01:36:12.634Z,0.00
2018-09-17T01:37:12.625Z,0.00
2018-09-17T01:38:12.609Z,0.00
2018-09-17T01:39:12.597Z,0.00
2018-09-17T01:40:12.567Z,0.00
2018-09-17T01:41:12.552Z,0.00
2018-09-17T01:42:12.544Z,0.00
2018-09-17T01:43:12.529Z,0.00
2018-09-17T01:44:12.564Z,0.00
2018-09-17T01:45:12.550Z,0.00
2018-09-17T01:46:12.516Z,0.00
2018-09-17T01:47:12.488Z,0.00
2018-09-17T01:48:12.481Z,0.00
2018-09-17T01:49:12.488Z,0.00
2018-09-17T01:50:12.484Z,0.00
2018-09-17T01:51:12.444Z,0.00
2018-09-17T01:52:12.431Z,0.00
2018-09-17T01:53:12.420Z,0.00
2018-09-17T01:54:12.411Z,0.00
2018-09-17T01:55:12.414Z,0.00
2018-09-17T01:56:12.414Z,0.00
2018-09-17T01:57:12.414Z,0.00
2018-09-17T01:58:12.365Z,0.00
2018-09-17T01:59:12.357Z,0.00
2018-09-17T02:00:12.374Z,0.00
2018-09-17T02:01:12.334Z,0.00
2018-09-17T02:02:12.322Z,0.00
2018-09-17T02:03:12.328Z,0.00
2018-09-17T02:04:12.328Z,0.00
2018-09-17T02:05:12.302Z,0.00
2018-09-17T02:06:12.276Z,0.00
2018-09-17T02:07:12.265Z,0.00
2018-09-17T02:08:12.270Z,0.00
2018-09-17T02:09:12.347Z,0.00
2018-09-17T02:10:12.285Z,0.00
2018-09-17T02:11:12.242Z,0.00
2018-09-17T02:12:12.213Z,0.00
2018-09-17T02:13:12.200Z,0.00
2018-09-17T02:14:12.226Z,0.00
2018-09-17T02:15:12.193Z,0.00
2018-09-17T02:16:12.168Z,0.00
2018-09-17T02:17:12.185Z,0.00
2018-09-17T02:18:12.146Z,0.00
2018-09-17T02:19:12.135Z,0.00
2018-09-17T02:20:12.138Z,0.00
2018-09-17T02:21:12.113Z,0.00
2018-09-17T02:22:12.099Z,0.00
2018-09-17T02:23:12.100Z,0.00
2018-09-17T02:24:12.080Z,0.00
2018-09-17T02:25:12.082Z,0.00
2018-09-17T02:26:12.057Z,0.00
2018-09-17T02:27:12.088Z,0.00
2018-09-17T02:28:12.036Z,0.00
2018-09-17T02:29:12.074Z,0.00
2018-09-17T02:30:12.109Z,0.00
2018-09-17T02:31:12.007Z,0.00
2018-09-17T02:32:11.993Z,0.00
2018-09-17T02:33:11.981Z,0.00
2018-09-17T02:34:11.979Z,0.00
2018-09-17T02:35:11.974Z,0.00
2018-09-17T02:36:11.986Z,0.00
2018-09-17T02:37:11.965Z,0.00
2018-09-17T02:38:11.926Z,0.00
2018-09-17T02:39:11.916Z,0.00
2018-09-17T02:40:11.920Z,0.00
2018-09-17T02:41:11.895Z,0.00
2018-09-17T02:42:11.883Z,0.00
2018-09-17T02:43:11.893Z,0.00
2018-09-17T02:44:11.862Z,0.00
2018-09-17T02:45:11.855Z,0.00
2018-09-17T02:46:11.858Z,0.00
2018-09-17T02:47:11.839Z,0.00
2018-09-17T02:48:11.816Z,0.00
2018-09-17T02:49:11.868Z,0.00
2018-09-17T02:50:11.799Z,0.00
2018-09-17T02:51:11.797Z,0.00
2018-09-17T02:52:11.773Z,0.00
2018-09-17T02:53:11.761Z,0.00
2018-09-17T02:54:11.754Z,0.00
2018-09-17T02:55:11.770Z,0.00
2018-09-17T02:56:11.746Z,0.00
2018-09-17T02:57:11.719Z,0.00
2018-09-17T02:58:11.707Z,0.00
2018-09-17T02:59:11.696Z,0.00
2018-09-17T03:00:11.685Z,0.00
2018-09-17T03:01:11.704Z,0.00
2018-09-17T03:02:11.690Z,0.00
2018-09-17T03:03:11.657Z,0.00
2018-09-17T03:04:11.640Z,0.00
2018-09-17T03:05:11.631Z,0.00
2018-09-17T03:06:11.632Z,0.00
2018-09-17T03:07:11.609Z,0.00
2018-09-17T03:08:11.618Z,0.00
2018-09-17T03:09:11.587Z,0.00
2018-09-17T03:10:11.576Z,0.00
2018-09-17T03:11:11.578Z,0.00
2018-09-17T03:12:11.582Z,0.00
2018-09-17T03:13:11.542Z,0.00
2018-09-17T03:14:11.561Z,0.00
2018-09-17T03:15:11.522Z,0.00
2018-09-17T03:16:11.523Z,0.00
2018-09-17T03:17:11.499Z,0.00
2018-09-17T03:18:11.489Z,0.00
2018-09-17T03:19:11.488Z,0.00
2018-09-17T03:20:11.483Z,0.00
2018-09-17T03:21:11.498Z,0.00
2018-09-17T03:22:11.470Z,0.00
2018-09-17T03:23:11.433Z,0.00
2018-09-17T03:24:11.421Z,0.00
2018-09-17T03:25:11.417Z,0.00
2018-09-17T03:26:11.418Z,0.00
2018-09-17T03:27:11.394Z,0.00
2018-09-17T03:28:11.405Z,0.00
2018-09-17T03:29:11.368Z,0.00
2018-09-17T03:30:11.359Z,0.00
2018-09-17T03:31:11.361Z,0.00
2018-09-17T03:32:11.349Z,0.00
2018-09-17T03:33:11.328Z,0.00
2018-09-17T03:34:11.342Z,0.00
2018-09-17T03:35:11.357Z,0.00
2018-09-17T03:36:11.318Z,0.00
2018-09-17T03:37:11.281Z,0.00
2018-09-17T03:38:11.268Z,0.00
2018-09-17T03:39:11.274Z,0.00
2018-09-17T03:40:11.248Z,0.00
2018-09-17T03:41:11.253Z,0.00
2018-09-17T03:42:11.268Z,0.00
2018-09-17T03:43:11.213Z,0.00
2018-09-17T03:44:11.205Z,0.00
2018-09-17T03:45:11.192Z,0.00
2018-09-17T03:46:11.184Z,0.00
2018-09-17T03:47:11.188Z,0.00
2018-09-17T03:48:11.204Z,0.00
2018-09-17T03:49:11.153Z,0.00
2018-09-17T03:50:11.139Z,0.00
2018-09-17T03:51:11.137Z,0.00
2018-09-17T03:52:11.131Z,0.00
2018-09-17T03:53:11.105Z,0.00
2018-09-17T03:54:11.151Z,0.00
2018-09-17T03:55:11.087Z,0.00
2018-09-17T03:56:11.073Z,0.00
2018-09-17T03:57:11.079Z,0.00
2018-09-17T03:58:11.051Z,0.00
2018-09-17T03:59:11.040Z,0.00
2018-09-17T04:00:11.044Z,0.00
2018-09-17T04:01:11.134Z,0.00
2018-09-17T04:02:11.043Z,0.00
2018-09-17T04:03:10.998Z,0.00
2018-09-17T04:04:11.012Z,0.00
2018-09-17T04:05:10.974Z,0.00
2018-09-17T04:06:10.987Z,0.00
2018-09-17T04:07:10.972Z,0.00
2018-09-17T04:08:10.941Z,0.00
2018-09-17T04:09:10.984Z,0.00
2018-09-17T04:10:10.923Z,0.00
2018-09-17T04:11:10.932Z,0.00
2018-09-17T04:12:10.912Z,0.00
2018-09-17T04:13:10.886Z,0.00
2018-09-17T04:14:10.874Z,0.00
2018-09-17T04:15:10.866Z,0.00
2018-09-17T04:16:10.867Z,0.00
2018-09-17T04:17:10.960Z,0.00
2018-09-17T04:18:10.833Z,0.00
2018-09-17T04:19:10.822Z,0.00
2018-09-17T04:20:10.809Z,0.00
2018-09-17T04:21:10.799Z,0.00
2018-09-17T04:22:10.803Z,0.00
2018-09-17T04:23:10.793Z,0.00
2018-09-17T04:24:10.784Z,0.00
2018-09-17T04:25:10.772Z,0.00
2018-09-17T04:26:10.755Z,0.00
2018-09-17T04:27:10.841Z,0.00
2018-09-17T04:28:10.733Z,0.00
2018-09-17T04:29:10.730Z,0.00
2018-09-17T04:30:10.807Z,0.00
2018-09-17T04:31:10.689Z,0.00
2018-09-17T04:32:10.743Z,0.00
2018-09-17T04:33:10.735Z,0.00
2018-09-17T04:34:10.656Z,0.00
2018-09-17T04:35:10.658Z,0.00
2018-09-17T04:36:10.636Z,0.00
2018-09-17T04:37:10.624Z,0.00
2018-09-17T04:38:10.627Z,4.00
2018-09-17T04:39:10.603Z,4.00
2018-09-17T04:40:10.595Z,4.00
2018-09-17T04:41:10.651Z,4.00
2018-09-17T04:42:10.596Z,4.00
2018-09-17T04:43:10.594Z,8.00
2018-09-17T04:44:10.545Z,8.00
2018-09-17T04:45:10.571Z,8.00
2018-09-17T04:46:10.525Z,8.00
2018-09-17T04:47:10.515Z,12.00
2018-09-17T04:48:10.551Z,16.00
2018-09-17T04:49:10.492Z,16.00
2018-09-17T04:50:10.483Z,20.00
2018-09-17T04:51:10.470Z,24.00
2018-09-17T04:52:10.461Z,28.00
2018-09-17T04:53:10.509Z,36.00
2018-09-17T04:54:10.437Z,40.00
2018-09-17T04:55:10.427Z,48.00
2018-09-17T04:56:10.417Z,60.00
2018-09-17T04:57:10.443Z,68.00
2018-09-17T04:58:10.406Z,84.00
2018-09-17T04:59:10.414Z,96.00
2018-09-17T05:00:10.374Z,112.00
2018-09-17T05:01:10.363Z,132.00
2018-09-17T05:02:10.348Z,152.00
2018-09-17T05:03:10.352Z,176.00
2018-09-17T05:04:10.329Z,200.00
2018-09-17T05:05:10.351Z,224.00
2018-09-17T05:06:10.307Z,252.00
2018-09-17T05:07:10.328Z,276.00
2018-09-17T05:08:10.299Z,308.00
2018-09-17T05:09:10.277Z,344.00
2018-09-17T05:10:10.263Z,376.00
2018-09-17T05:11:10.279Z,416.00
2018-09-17T05:12:10.256Z,456.00
2018-09-17T05:13:10.362Z,488.00
2018-09-17T05:14:10.218Z,528.00
2018-09-17T05:15:10.227Z,568.00
2018-09-17T05:16:10.196Z,608.00
2018-09-17T05:17:10.205Z,648.00
2018-09-17T05:18:10.219Z,688.00
2018-09-17T05:19:10.196Z,728.00
2018-09-17T05:20:10.185Z,776.00
2018-09-17T05:21:10.145Z,816.00
2018-09-17T05:22:10.131Z,860.00
2018-09-17T05:23:10.120Z,908.00
2018-09-17T05:24:10.125Z,952.00
2018-09-17T05:25:10.098Z,996.00
2018-09-17T05:26:10.114Z,1040.00
2018-09-17T05:27:10.077Z,1088.00
2018-09-17T05:28:10.066Z,1124.00
2018-09-17T05:29:10.070Z,1168.00
2018-09-17T05:30:10.046Z,1204.00
2018-09-17T05:31:10.032Z,1248.00
2018-09-17T05:32:10.035Z,1296.00
2018-09-17T05:33:10.013Z,1340.00
2018-09-17T05:34:10.018Z,1380.00
2018-09-17T05:35:10.030Z,1424.00
2018-09-17T05:36:09.979Z,1464.00
2018-09-17T05:37:09.996Z,1512.00
2018-09-17T05:38:09.974Z,1556.00
2018-09-17T05:39:10.003Z,1604.00
2018-09-17T05:40:09.936Z,1652.00
2018-09-17T05:41:09.925Z,1696.00
2018-09-17T05:42:09.914Z,1768.00
2018-09-17T05:43:09.902Z,1844.00
2018-09-17T05:44:09.905Z,1904.00
2018-09-17T05:45:09.915Z,1952.00
2018-09-17T05:46:09.873Z,2012.00
2018-09-17T05:47:09.859Z,2056.00
2018-09-17T05:48:09.848Z,2116.00
2018-09-17T05:49:09.851Z,2160.00
2018-09-17T05:50:09.827Z,2216.00
2018-09-17T05:51:09.852Z,2264.00
2018-09-17T05:52:09.804Z,2316.00
2018-09-17T05:53:09.795Z,2364.00
2018-09-17T05:54:09.809Z,2424.00
2018-09-17T05:55:09.772Z,2492.00
2018-09-17T05:56:09.760Z,2548.00
2018-09-17T05:57:09.822Z,2584.00
2018-09-17T05:58:09.743Z,2632.00
2018-09-17T05:59:09.741Z,2704.00
2018-09-17T06:00:09.718Z,2776.00
2018-09-17T06:01:09.709Z,2820.00
2018-09-17T06:02:09.695Z,2880.00
2018-09-17T06:03:09.696Z,2976.00
2018-09-17T06:04:09.689Z,3176.00
2018-09-17T06:05:09.666Z,3320.00
2018-09-17T06:06:09.717Z,3408.00
2018-09-17T06:07:09.719Z,3540.00
2018-09-17T06:08:09.629Z,3664.00
2018-09-17T06:09:09.676Z,3776.00
2018-09-17T06:10:09.610Z,3900.00
2018-09-17T06:11:09.598Z,4032.00
2018-09-17T06:12:09.589Z,4156.00
2018-09-17T06:13:09.587Z,4292.00
2018-09-17T06:14:09.564Z,4408.00
2018-09-17T06:15:09.616Z,4500.00
2018-09-17T06:16:09.541Z,4516.00
2018-09-17T06:17:09.531Z,4580.00
2018-09-17T06:18:09.521Z,4632.00
2018-09-17T06:19:09.509Z,4624.00
2018-09-17T06:20:09.512Z,4576.00
2018-09-17T06:21:09.503Z,4508.00
2018-09-17T06:22:09.502Z,4360.00
2018-09-17T06:23:09.502Z,4264.00
2018-09-17T06:24:09.454Z,4392.00
2018-09-17T06:25:09.457Z,4604.00
2018-09-17T06:26:09.436Z,4736.00
2018-09-17T06:27:09.421Z,4848.00
2018-09-17T06:28:09.431Z,4932.00
2018-09-17T06:29:09.401Z,5000.00
2018-09-17T06:30:09.403Z,5104.00
2018-09-17T06:31:09.378Z,5248.00
2018-09-17T06:32:09.370Z,5276.00
2018-09-17T06:33:09.379Z,5296.00
2018-09-17T06:34:09.442Z,5344.00
2018-09-17T06:35:09.512Z,5368.00
2018-09-17T06:36:09.504Z,5412.00
2018-09-17T06:37:09.329Z,5448.00
2018-09-17T06:38:09.302Z,5532.00
2018-09-17T06:39:09.289Z,5584.00
2018-09-17T06:40:09.312Z,5720.00
2018-09-17T06:41:09.283Z,5820.00
2018-09-17T06:42:09.266Z,5840.00
2018-09-17T06:43:09.253Z,5980.00
2018-09-17T06:44:09.311Z,5988.00
2018-09-17T06:45:09.270Z,5928.00
2018-09-17T06:46:09.216Z,6132.00
2018-09-17T06:47:09.219Z,6292.00
2018-09-17T06:48:09.232Z,5976.00
2018-09-17T06:49:09.230Z,5924.00
2018-09-17T06:50:09.197Z,6060.00
2018-09-17T06:51:09.189Z,6088.00
2018-09-17T06:52:09.149Z,5660.00
2018-09-17T06:53:09.156Z,5316.00
2018-09-17T06:54:09.148Z,5312.00
2018-09-17T06:55:09.131Z,5332.00
2018-09-17T06:56:09.106Z,5200.00
2018-09-17T06:57:09.101Z,5136.00
2018-09-17T06:58:09.127Z,5120.00
2018-09-17T06:59:09.089Z,5120.00
2018-09-17T07:00:09.074Z,5140.00
2018-09-17T07:01:09.076Z,5132.00
2018-09-17T07:02:09.050Z,5152.00
2018-09-17T07:03:09.077Z,5184.00
2018-09-17T07:04:09.024Z,5136.00
2018-09-17T07:05:09.039Z,5124.00
2018-09-17T07:06:09.016Z,5128.00
2018-09-17T07:07:09.006Z,5144.00
2018-09-17T07:08:09.015Z,5164.00
2018-09-17T07:09:08.966Z,5196.00
2018-09-17T07:10:08.972Z,5216.00
2018-09-17T07:11:08.958Z,5232.00
2018-09-17T07:12:08.955Z,5252.00
2018-09-17T07:13:08.922Z,5264.00
2018-09-17T07:14:08.908Z,5280.00
2018-09-17T07:15:08.931Z,5296.00
2018-09-17T07:16:08.909Z,5312.00
2018-09-17T07:17:08.899Z,5332.00
2018-09-17T07:18:08.954Z,5352.00
2018-09-17T07:19:08.873Z,5368.00
2018-09-17T07:20:08.899Z,5384.00
2018-09-17T07:21:08.894Z,5392.00
2018-09-17T07:22:08.874Z,5400.00
2018-09-17T07:23:08.838Z,5416.00
2018-09-17T07:24:08.828Z,5440.00
2018-09-17T07:25:08.803Z,5460.00
2018-09-17T07:26:08.816Z,5464.00
2018-09-17T07:27:08.788Z,5480.00
2018-09-17T07:28:08.765Z,5488.00
2018-09-17T07:29:08.744Z,5504.00
2018-09-17T07:30:08.733Z,5520.00
2018-09-17T07:31:08.771Z,5532.00
2018-09-17T07:32:08.710Z,5536.00
2018-09-17T07:33:08.701Z,5556.00
2018-09-17T07:34:08.691Z,5564.00
2018-09-17T07:35:08.678Z,5572.00
2018-09-17T07:36:08.768Z,5584.00
2018-09-17T07:37:08.657Z,5592.00
2018-09-17T07:38:08.652Z,5612.00
2018-09-17T07:39:08.638Z,5624.00
2018-09-17T07:40:08.625Z,5648.00
2018-09-17T07:41:08.628Z,5672.00
2018-09-17T07:42:08.716Z,5676.00
2018-09-17T07:43:08.610Z,5688.00
2018-09-17T07:44:08.582Z,5708.00
2018-09-17T07:45:08.573Z,5720.00
2018-09-17T07:46:08.582Z,5728.00
2018-09-17T07:47:08.552Z,5668.00
2018-09-17T07:48:08.538Z,5636.00
2018-09-17T07:49:08.555Z,5644.00
2018-09-17T07:50:08.517Z,5668.00
2018-09-17T07:51:08.519Z,5708.00
2018-09-17T07:52:08.495Z,5740.00
2018-09-17T07:53:08.489Z,5768.00
2018-09-17T07:54:08.469Z,5796.00
2018-09-17T07:55:08.561Z,5808.00
2018-09-17T07:56:08.469Z,5832.00
2018-09-17T07:57:08.466Z,5880.00
2018-09-17T07:58:08.429Z,5916.00
2018-09-17T07:59:08.420Z,5960.00
2018-09-17T08:00:08.462Z,5996.00
2018-09-17T08:01:08.491Z,6020.00
2018-09-17T08:02:08.400Z,6040.00
2018-09-17T08:03:08.370Z,6060.00
2018-09-17T08:04:08.381Z,6080.00
2018-09-17T08:05:08.363Z,6092.00
2018-09-17T08:06:08.430Z,6100.00
2018-09-17T08:07:08.345Z,6120.00
2018-09-17T08:08:08.332Z,6136.00
2018-09-17T08:09:08.313Z,6152.00
2018-09-17T08:10:08.331Z,6176.00
2018-09-17T08:11:08.301Z,6200.00
2018-09-17T08:12:08.301Z,6224.00
2018-09-17T08:13:08.268Z,6248.00
2018-09-17T08:14:08.251Z,6276.00
2018-09-17T08:15:08.283Z,6296.00
2018-09-17T08:16:08.274Z,6312.00
2018-09-17T08:17:08.260Z,6340.00
2018-09-17T08:18:08.244Z,6344.00
2018-09-17T08:19:08.207Z,6388.00
2018-09-17T08:20:08.205Z,6424.00
2018-09-17T08:21:08.173Z,6456.00
2018-09-17T08:22:08.186Z,6484.00
2018-09-17T08:23:08.204Z,6504.00
2018-09-17T08:24:08.150Z,6524.00
2018-09-17T08:25:08.140Z,6552.00
2018-09-17T08:26:08.137Z,6576.00
2018-09-17T08:27:08.148Z,6616.00
2018-09-17T08:28:08.101Z,6652.00
2018-09-17T08:29:08.128Z,6704.00
2018-09-17T08:30:08.086Z,6768.00
2018-09-17T08:31:08.082Z,6856.00
2018-09-17T08:32:08.084Z,6972.00
2018-09-17T08:33:08.052Z,7776.00
2018-09-17T08:34:08.058Z,16096.00
2018-09-17T08:35:08.030Z,25248.00
2018-09-17T08:36:08.073Z,26336.00
2018-09-17T08:37:08.087Z,25632.00
2018-09-17T08:38:08.009Z,23328.00
2018-09-17T08:39:08.019Z,24096.00
2018-09-17T08:40:07.989Z,24800.00
2018-09-17T08:41:07.974Z,24032.00
2018-09-17T08:42:07.982Z,22560.00
2018-09-17T08:43:07.936Z,22464.00
2018-09-17T08:44:07.942Z,22272.00
2018-09-17T08:45:07.926Z,22400.00
2018-09-17T08:46:07.918Z,23136.00
2018-09-17T08:47:07.942Z,23072.00
2018-09-17T08:48:07.946Z,23616.00
2018-09-17T08:49:07.887Z,24544.00
2018-09-17T08:50:07.875Z,24064.00
2018-09-17T08:51:07.870Z,22304.00
2018-09-17T08:52:07.874Z,13084.00
2018-09-17T08:53:07.858Z,8420.00
2018-09-17T08:54:07.823Z,8768.00
2018-09-17T08:55:07.809Z,24096.00
2018-09-17T08:56:07.845Z,46400.00
2018-09-17T08:57:07.804Z,49664.00
2018-09-17T08:58:07.826Z,50560.00
2018-09-17T08:59:07.765Z,50336.00
2018-09-17T09:00:07.766Z,50208.00
2018-09-17T09:01:07.807Z,48992.00
2018-09-17T09:02:07.757Z,50016.00
2018-09-17T09:03:07.725Z,51904.00
2018-09-17T09:04:07.755Z,53216.00
2018-09-17T09:05:07.763Z,53248.00
2018-09-17T09:06:07.704Z,53824.00
2018-09-17T09:07:07.721Z,53344.00
2018-09-17T09:08:07.676Z,54240.00
2018-09-17T09:09:07.727Z,54368.00
2018-09-17T09:10:07.647Z,53568.00
2018-09-17T09:11:07.639Z,54880.00
2018-09-17T09:12:07.634Z,53536.00
2018-09-17T09:13:07.646Z,49952.00
2018-09-17T09:14:07.633Z,50432.00
2018-09-17T09:15:07.605Z,48864.00
2018-09-17T09:16:07.588Z,46432.00
2018-09-17T09:17:07.619Z,45504.00
2018-09-17T09:18:07.605Z,42304.00
2018-09-17T09:19:07.555Z,41856.00
2018-09-17T09:20:07.554Z,45056.00
2018-09-17T09:21:07.538Z,47904.00
2018-09-17T09:22:07.532Z,32320.00
2018-09-17T09:23:07.532Z,11428.00
2018-09-17T09:24:07.606Z,28544.00
2018-09-17T09:25:07.539Z,49728.00
2018-09-17T09:26:07.587Z,52032.00
2018-09-17T09:27:07.522Z,52768.00
2018-09-17T09:28:07.501Z,52064.00
2018-09-17T09:29:07.464Z,51840.00
2018-09-17T09:30:07.478Z,49152.00
2018-09-17T09:31:07.456Z,49280.00
2018-09-17T09:32:07.465Z,51904.00
2018-09-17T09:33:07.420Z,54304.00
2018-09-17T09:34:07.438Z,55232.00
2018-09-17T09:35:07.394Z,53952.00
2018-09-17T09:36:07.390Z,53568.00
2018-09-17T09:37:07.367Z,54336.00
2018-09-17T09:38:07.448Z,53664.00
2018-09-17T09:39:07.344Z,55008.00
2018-09-17T09:40:07.343Z,56672.00
2018-09-17T09:41:07.330Z,57568.00
2018-09-17T09:42:07.321Z,56992.00
2018-09-17T09:43:07.375Z,59360.00
2018-09-17T09:44:07.308Z,59936.00
2018-09-17T09:45:07.285Z,59648.00
2018-09-17T09:46:07.281Z,60480.00
2018-09-17T09:47:07.270Z,60864.00
2018-09-17T09:48:07.286Z,39488.00
2018-09-17T09:49:07.247Z,14188.00
2018-09-17T09:50:07.243Z,39936.00
2018-09-17T09:51:07.237Z,60576.00
2018-09-17T09:52:07.208Z,59136.00
2018-09-17T09:53:07.244Z,61504.00
2018-09-17T09:54:07.198Z,63872.00
2018-09-17T09:55:07.183Z,63712.00
2018-09-17T09:56:07.207Z,62624.00
2018-09-17T09:57:07.169Z,62976.00
2018-09-17T09:58:07.181Z,63488.00
2018-09-17T09:59:07.170Z,64096.00
2018-09-17T10:00:07.157Z,63488.00
2018-09-17T10:01:07.164Z,63296.00
2018-09-17T10:02:07.110Z,63008.00
2018-09-17T10:03:07.105Z,63488.00
2018-09-17T10:04:07.137Z,57952.00
2018-09-17T10:05:07.090Z,26336.00
2018-09-17T10:06:07.174Z,30592.00
2018-09-17T10:07:07.059Z,62496.00
2018-09-17T10:08:07.077Z,64576.00
2018-09-17T10:09:07.064Z,64032.00
2018-09-17T10:10:07.050Z,63392.00
2018-09-17T10:11:07.039Z,63264.00
2018-09-17T10:12:07.041Z,63360.00
2018-09-17T10:13:07.043Z,64384.00
2018-09-17T10:14:07.053Z,63872.00
2018-09-17T10:15:07.016Z,64992.00
2018-09-17T10:16:06.964Z,43776.00
2018-09-17T10:17:07.014Z,21440.00
2018-09-17T10:18:06.946Z,51040.00
2018-09-17T10:19:06.970Z,65632.00
2018-09-17T10:20:06.938Z,65152.00
2018-09-17T10:21:06.941Z,64896.00
2018-09-17T10:22:06.967Z,64064.00
2018-09-17T10:23:06.909Z,62656.00
2018-09-17T10:24:07.005Z,63360.00
2018-09-17T10:25:06.927Z,64576.00
2018-09-17T10:26:06.868Z,65824.00
2018-09-17T10:27:06.874Z,54176.00
2018-09-17T10:28:06.842Z,24704.00
2018-09-17T10:29:06.850Z,40288.00
2018-09-17T10:30:06.862Z,63744.00
2018-09-17T10:31:06.836Z,65856.00
2018-09-17T10:32:06.861Z,64608.00
2018-09-17T10:33:06.806Z,59968.00
2018-09-17T10:34:06.806Z,58912.00
2018-09-17T10:35:06.783Z,60576.00
2018-09-17T10:36:06.771Z,64128.00
2018-09-17T10:37:06.777Z,64864.00
2018-09-17T10:38:06.749Z,37952.00
2018-09-17T10:39:06.753Z,32128.00
2018-09-17T10:40:06.742Z,63264.00
2018-09-17T10:41:06.718Z,68896.00
2018-09-17T10:42:06.704Z,69280.00
2018-09-17T10:43:06.700Z,69120.00
2018-09-17T10:44:06.698Z,67360.00
2018-09-17T10:45:06.700Z,48864.00
2018-09-17T10:46:06.682Z,31168.00
2018-09-17T10:47:06.664Z,58112.00
2018-09-17T10:48:06.695Z,68768.00
2018-09-17T10:49:06.659Z,67936.00
2018-09-17T10:50:06.670Z,68160.00
2018-09-17T10:51:06.616Z,59104.00
2018-09-17T10:52:06.618Z,33824.00
2018-09-17T10:53:06.631Z,50048.00
2018-09-17T10:54:06.634Z,69728.00
2018-09-17T10:55:06.580Z,69696.00
2018-09-17T10:56:06.574Z,68064.00
2018-09-17T10:57:06.553Z,41920.00
2018-09-17T10:58:06.581Z,43040.00
2018-09-17T10:59:06.547Z,70272.00
2018-09-17T11:00:06.557Z,70848.00
2018-09-17T11:01:06.524Z,58144.00
2018-09-17T11:02:06.501Z,38688.00
2018-09-17T11:03:06.504Z,56736.00
2018-09-17T11:04:06.558Z,72512.00
2018-09-17T11:05:06.486Z,54048.00
2018-09-17T11:06:06.475Z,37664.00
2018-09-17T11:07:06.491Z,27744.00
2018-09-17T11:08:06.485Z,30848.00
2018-09-17T11:09:06.447Z,28480.00
2018-09-17T11:10:06.490Z,30208.00
2018-09-17T11:11:06.421Z,24992.00
2018-09-17T11:12:06.406Z,24928.00
2018-09-17T11:13:06.403Z,49184.00
2018-09-17T11:14:06.389Z,71232.00
2018-09-17T11:15:06.443Z,71008.00
2018-09-17T11:16:06.367Z,64704.00
2018-09-17T11:17:06.362Z,64576.00
2018-09-17T11:18:06.357Z,47264.00
2018-09-17T11:19:06.343Z,24768.00
2018-09-17T11:20:06.351Z,64544.00
2018-09-17T11:21:06.313Z,70528.00
2018-09-17T11:22:06.311Z,72256.00
2018-09-17T11:23:06.305Z,71200.00
2018-09-17T11:24:06.288Z,69952.00
2018-09-17T11:25:06.336Z,65184.00
2018-09-17T11:26:06.272Z,39072.00
2018-09-17T11:27:06.272Z,20512.00
2018-09-17T11:28:06.299Z,20288.00
2018-09-17T11:29:06.272Z,21472.00
2018-09-17T11:30:06.282Z,14736.00
2018-09-17T11:31:06.231Z,54784.00
2018-09-17T11:32:06.235Z,66944.00
2018-09-17T11:33:06.237Z,63904.00
2018-09-17T11:34:06.219Z,59328.00
2018-09-17T11:35:06.214Z,60480.00
2018-09-17T11:36:06.203Z,21024.00
2018-09-17T11:37:06.182Z,20448.00
2018-09-17T11:38:06.149Z,24768.00
2018-09-17T11:39:06.147Z,13392.00
2018-09-17T11:40:06.130Z,23872.00
2018-09-17T11:41:06.151Z,15260.00
2018-09-17T11:42:06.108Z,6600.00
2018-09-17T11:43:06.127Z,6436.00
2018-09-17T11:44:06.091Z,6348.00
2018-09-17T11:45:06.087Z,6224.00
2018-09-17T11:46:06.312Z,6192.00
2018-09-17T11:47:06.090Z,6188.00
2018-09-17T11:48:06.066Z,6104.00
2018-09-17T11:49:06.040Z,6076.00
2018-09-17T11:50:06.019Z,5984.00
2018-09-17T11:51:06.031Z,5884.00
2018-09-17T11:52:06.082Z,7056.00
2018-09-17T11:53:06.043Z,11864.00
2018-09-17T11:54:06.140Z,14488.00
2018-09-17T11:55:05.974Z,18496.00
2018-09-17T11:56:05.992Z,17312.00
2018-09-17T11:57:05.951Z,6788.00
2018-09-17T11:58:05.970Z,7400.00
2018-09-17T11:59:05.972Z,5636.00
2018-09-17T12:00:05.984Z,5604.00
2018-09-17T12:01:05.924Z,5584.00
2018-09-17T12:02:05.912Z,5544.00
2018-09-17T12:03:05.886Z,5528.00
2018-09-17T12:04:05.893Z,5540.00
2018-09-17T12:05:05.863Z,5496.00
2018-09-17T12:06:05.876Z,5448.00
2018-09-17T12:07:05.865Z,5416.00
2018-09-17T12:08:05.844Z,5388.00
2018-09-17T12:09:05.867Z,5360.00
2018-09-17T12:10:05.834Z,5336.00
2018-09-17T12:11:05.849Z,5312.00
2018-09-17T12:12:05.805Z,5292.00
2018-09-17T12:13:05.800Z,5408.00
2018-09-17T12:14:05.774Z,5340.00
2018-09-17T12:15:05.761Z,5216.00
2018-09-17T12:16:05.779Z,5204.00
2018-09-17T12:17:05.737Z,5184.00
2018-09-17T12:18:05.733Z,5172.00
2018-09-17T12:19:05.722Z,5192.00
2018-09-17T12:20:05.723Z,5552.00
2018-09-17T12:21:05.714Z,7196.00
2018-09-17T12:22:05.702Z,5188.00
2018-09-17T12:23:05.680Z,5176.00
2018-09-17T12:24:05.705Z,6208.00
2018-09-17T12:25:05.671Z,11128.00
2018-09-17T12:26:05.674Z,7860.00
2018-09-17T12:27:05.639Z,5060.00